Time;durP1;ratioP1;P1;durP2;ratioP2;P2;SDS_P1;SDS_P2;PMS_P1;PMS_P2;Temp;Humidity;BMP_temperature;BMP_pressure;BME280_temperature;BME280_humidity;BME280_pressure;Samples;Min_cycle;Max_cycle;Signal;HPM_P1;HPM_P2
2022/05/28 00:01:03;;;;;;;5.30;3.23;;;;;;;8.02;100.00;96544.53;5072281;28;20452;-75
2022/05/28 00:03:32;;;;;;;5.30;4.00;;;;;;;7.92;100.00;96539.50;5073856;28;20444;-76
2022/05/28 00:05:59;;;;;;;3.87;3.50;;;;;;;7.77;100.00;96510.97;5072575;28;20855;-75
2022/05/28 00:08:26;;;;;;;4.30;3.40;;;;;;;7.95;100.00;96544.16;5072739;28;20475;-76
2022/05/28 00:10:57;;;;;;;4.27;3.03;;;;;;;7.82;100.00;96537.13;5073421;28;20454;-76
2022/05/28 00:13:24;;;;;;;8.70;3.60;;;;;;;7.80;100.00;96528.78;5072102;28;20535;-76
2022/05/28 00:15:51;;;;;;;5.87;3.67;;;;;;;7.89;100.00;96538.25;5088782;28;20428;-76
2022/05/28 00:18:18;;;;;;;6.43;3.40;;;;;;;7.66;100.00;96513.06;5073540;28;21017;-76
2022/05/28 00:20:45;;;;;;;5.93;3.23;;;;;;;7.84;100.00;96556.81;5088567;28;20484;-76
2022/05/28 00:23:13;;;;;;;9.57;3.77;;;;;;;7.85;100.00;96549.69;5078092;28;20569;-76
2022/05/28 00:25:40;;;;;;;4.80;3.27;;;;;;;7.80;100.00;96545.34;5075287;28;20436;-76
2022/05/28 00:28:07;;;;;;;3.67;2.77;;;;;;;7.79;100.00;96535.91;5055378;28;20506;-76
2022/05/28 00:30:33;;;;;;;4.00;3.53;;;;;;;8.13;100.00;96555.53;5071709;28;20535;-76
2022/05/28 00:33:00;;;;;;;5.13;3.20;;;;;;;7.52;100.00;96491.34;5071695;28;20568;-76
2022/05/28 00:35:26;;;;;;;13.60;3.10;;;;;;;7.76;100.00;96530.47;5088731;28;20516;-77
2022/05/28 00:37:53;;;;;;;5.37;3.40;;;;;;;7.62;100.00;96536.59;5073323;28;20456;-76
2022/05/28 00:40:23;;;;;;;3.47;2.73;;;;;;;7.56;100.00;96563.31;5071409;28;20461;-76
2022/05/28 00:42:50;;;;;;;3.67;3.20;;;;;;;7.52;100.00;96543.94;5071771;28;20494;-76
2022/05/28 00:45:17;;;;;;;4.60;3.43;;;;;;;7.62;100.00;96539.22;5071577;28;20440;-76
2022/05/28 00:47:48;;;;;;;8.57;3.40;;;;;;;7.76;100.00;96551.53;5071621;28;20439;-76
2022/05/28 00:50:16;;;;;;;11.33;3.57;;;;;;;7.61;100.00;96550.81;5071132;28;21020;-76
2022/05/28 00:52:44;;;;;;;4.10;2.57;;;;;;;7.56;100.00;96529.09;5080877;28;20542;-76
2022/05/28 00:55:13;;;;;;;6.80;3.37;;;;;;;7.52;100.00;96562.38;5075319;28;20420;-76
2022/05/28 00:57:41;;;;;;;5.70;4.53;;;;;;;7.47;100.00;96559.84;5071266;28;20468;-76
2022/05/28 01:00:11;;;;;;;5.07;2.53;;;;;;;7.54;100.00;96568.09;5088190;28;20575;-76
2022/05/28 01:02:57;;;;;;;7.00;2.90;;;;;;;7.44;100.00;96552.56;5071479;28;20498;-76
2022/05/28 01:05:45;;;;;;;4.70;2.80;;;;;;;7.44;100.00;96561.22;5041526;28;20520;-76
2022/05/28 01:08:28;;;;;;;4.90;3.07;;;;;;;7.39;100.00;96554.25;5054992;28;21122;-76
2022/05/28 01:11:19;;;;;;;5.43;2.67;;;;;;;7.31;100.00;96552.31;5083334;28;20431;-76
2022/05/28 01:14:21;;;;;;;6.20;2.97;;;;;;;7.03;100.00;96545.59;5061110;28;20486;-76
2022/05/28 01:17:14;;;;;;;4.43;3.33;;;;;;;7.09;100.00;96550.47;5050813;28;20441;-77
2022/05/28 01:19:53;;;;;;;4.80;2.87;;;;;;;7.06;100.00;96553.66;5067959;28;20510;-76
2022/05/28 01:22:45;;;;;;;5.60;2.73;;;;;;;7.15;100.00;96547.72;5072267;28;20444;-76
2022/05/28 01:25:30;;;;;;;4.70;3.50;;;;;;;7.24;100.00;96543.31;5017721;28;20504;-76
2022/05/28 01:28:03;;;;;;;7.40;2.80;;;;;;;7.48;100.00;96556.13;5079375;28;20416;-76
2022/05/28 01:30:30;;;;;;;4.33;2.93;;;;;;;7.44;100.00;96518.34;5080275;28;20425;-75
2022/05/28 01:32:59;;;;;;;4.90;2.83;;;;;;;7.35;100.00;96536.72;5059225;28;21004;-76
2022/05/28 01:35:28;;;;;;;4.60;3.10;;;;;;;7.14;100.00;96533.03;5076950;28;20525;-76
2022/05/28 01:37:57;;;;;;;5.33;2.90;;;;;;;7.49;100.00;96550.59;5074971;28;20468;-76
2022/05/28 01:40:25;;;;;;;4.67;3.03;;;;;;;7.48;100.00;96551.66;5072158;28;20803;-76
2022/05/28 01:42:54;;;;;;;8.27;2.67;;;;;;;7.30;100.00;96523.69;5083077;28;20452;-76
2022/05/28 01:45:26;;;;;;;5.57;2.80;;;;;;;7.21;100.00;96515.75;5070326;28;20509;-76
2022/05/28 01:47:55;;;;;;;5.83;3.10;;;;;;;7.07;100.00;96515.78;5071624;28;20420;-76
2022/05/28 01:50:25;;;;;;;9.37;3.60;;;;;;;7.17;100.00;96512.16;5070312;28;20424;-76
2022/05/28 01:52:54;;;;;;;6.83;2.53;;;;;;;7.23;100.00;96553.03;5070200;28;20906;-76
2022/05/28 01:55:25;;;;;;;4.83;2.47;;;;;;;7.10;100.00;96528.38;5070327;28;20893;-76
2022/05/28 01:57:52;;;;;;;7.30;2.43;;;;;;;7.11;100.00;96524.66;5070119;28;20444;-76
2022/05/28 02:00:19;;;;;;;5.63;2.90;;;;;;;7.23;100.00;96554.91;5070063;28;20886;-76
2022/05/28 02:02:49;;;;;;;6.60;3.00;;;;;;;7.06;100.00;96510.84;5069522;28;20798;-76
2022/05/28 02:05:16;;;;;;;3.97;2.10;;;;;;;7.30;100.00;96544.72;5071055;28;20425;-76
2022/05/28 02:07:42;;;;;;;8.20;2.70;;;;;;;7.29;100.00;96524.75;5069953;28;20474;-76
2022/05/28 02:10:15;;;;;;;5.83;2.53;;;;;;;7.25;100.00;96508.81;5069912;28;20527;-76
2022/05/28 02:12:53;;;;;;;5.83;2.23;;;;;;;7.39;100.00;96550.81;5069938;28;20559;-76
2022/05/28 02:15:34;;;;;;;7.30;3.00;;;;;;;7.20;100.00;96542.31;5059189;28;20448;-76
2022/05/28 02:18:24;;;;;;;3.57;2.40;;;;;;;7.04;100.00;96553.19;5053123;28;20442;-76
2022/05/28 02:21:30;;;;;;;5.30;2.23;;;;;;;6.59;100.00;96538.44;5069820;28;20511;-77
2022/05/28 02:24:18;;;;;;;11.27;2.80;;;;;;;6.48;100.00;96548.38;5063054;28;20435;-76
2022/05/28 02:26:57;;;;;;;6.07;3.20;;;;;;;6.24;100.00;96543.31;5057695;28;20436;-76
2022/05/28 02:29:24;;;;;;;10.33;3.00;;;;;;;6.49;100.00;96542.03;5085098;28;20424;-76
2022/05/28 02:31:51;;;;;;;9.10;2.80;;;;;;;6.13;100.00;96503.34;5069812;28;20556;-76
2022/05/28 02:34:19;;;;;;;4.17;2.33;;;;;;;6.23;100.00;96511.03;5069667;28;20879;-76
2022/05/28 02:36:46;;;;;;;3.67;2.37;;;;;;;6.34;100.00;96509.00;5071044;28;20425;-76
2022/05/28 02:39:12;;;;;;;5.37;2.80;;;;;;;6.29;100.00;96513.59;5071041;28;20519;-76
2022/05/28 02:41:39;;;;;;;9.43;3.17;;;;;;;5.99;100.00;96497.34;5069315;28;21002;-76
2022/05/28 02:44:05;;;;;;;3.97;2.97;;;;;;;6.07;100.00;96522.91;5069381;28;20850;-76
2022/05/28 02:46:32;;;;;;;4.87;3.60;;;;;;;6.15;100.00;96537.22;5069660;28;20545;-76
2022/05/28 02:48:59;;;;;;;8.83;3.37;;;;;;;6.11;100.00;96531.75;5069449;28;21087;-76
2022/05/28 02:51:26;;;;;;;8.13;3.70;;;;;;;6.00;100.00;96521.72;5070628;28;20519;-76
2022/05/28 02:53:54;;;;;;;6.87;2.83;;;;;;;5.73;100.00;96497.00;5069520;28;20853;-76
2022/05/28 02:56:22;;;;;;;3.77;2.17;;;;;;;5.91;100.00;96543.41;5086245;28;20421;-76
2022/05/28 02:58:49;;;;;;;3.33;3.03;;;;;;;5.57;100.00;96487.88;5069446;28;20439;-76
2022/05/28 03:01:20;;;;;;;5.07;2.70;;;;;;;5.95;100.00;96542.84;5069335;28;20452;-76
2022/05/28 03:03:47;;;;;;;5.63;3.03;;;;;;;5.78;100.00;96515.28;5070662;28;20435;-76
2022/05/28 03:06:14;;;;;;;7.23;2.63;;;;;;;5.82;100.00;96521.50;5049596;28;20490;-76
2022/05/28 03:08:42;;;;;;;5.90;3.07;;;;;;;5.80;100.00;96534.16;5069348;28;20483;-77
2022/05/28 03:11:09;;;;;;;3.07;2.60;;;;;;;5.90;100.00;96544.50;5070492;28;20428;-76
2022/05/28 03:13:36;;;;;;;8.73;2.73;;;;;;;5.70;100.00;96523.81;5069470;28;20881;-76
2022/05/28 03:16:03;;;;;;;6.73;2.67;;;;;;;5.72;100.00;96540.03;5074082;28;20424;-76
2022/05/28 03:18:30;;;;;;;4.33;2.70;;;;;;;5.54;100.00;96525.16;5074357;28;20466;-76
2022/05/28 03:20:57;;;;;;;5.80;3.10;;;;;;;5.69;100.00;96545.09;5072972;28;20471;-76
2022/05/28 03:23:23;;;;;;;7.97;3.53;;;;;;;5.70;100.00;96541.41;5072995;28;21066;-76
2022/05/28 03:25:51;;;;;;;7.00;4.40;;;;;;;5.44;100.00;96509.59;5089945;28;20534;-76
2022/05/28 03:28:17;;;;;;;6.80;5.13;;;;;;;5.54;100.00;96535.66;5073048;28;20524;-76
2022/05/28 03:30:44;;;;;;;9.73;4.40;;;;;;;5.52;100.00;96508.94;5088345;28;20876;-75
2022/05/28 03:33:11;;;;;;;6.77;3.70;;;;;;;5.40;100.00;96509.41;5067743;28;20464;-76
2022/05/28 03:35:39;;;;;;;5.23;3.30;;;;;;;5.45;100.00;96525.03;5072770;28;20446;-75
2022/05/28 03:38:07;;;;;;;6.67;3.33;;;;;;;5.49;100.00;96527.88;5072996;28;20519;-76
2022/05/28 03:40:34;;;;;;;19.67;3.80;;;;;;;5.48;100.00;96518.47;5072897;28;20995;-76
2022/05/28 03:43:00;;;;;;;8.93;4.67;;;;;;;5.36;100.00;96521.53;5072990;28;20968;-75
2022/05/28 03:45:27;;;;;;;13.77;3.67;;;;;;;5.27;100.00;96560.72;5073052;28;20425;-76
2022/05/28 03:47:56;;;;;;;3.67;3.37;;;;;;;5.24;100.00;96557.91;5056007;28;20428;-76
2022/05/28 03:50:22;;;;;;;4.13;2.80;;;;;;;5.39;100.00;96562.13;5072504;28;20948;-76
2022/05/28 03:52:49;;;;;;;4.23;3.37;;;;;;;5.40;100.00;96537.47;5072635;28;20484;-76
2022/05/28 03:55:16;;;;;;;7.30;3.90;;;;;;;5.46;100.00;96558.06;5073843;28;20586;-76
2022/05/28 03:57:42;;;;;;;8.07;4.87;;;;;;;5.23;100.00;96536.16;5072789;28;20959;-76
2022/05/28 04:00:09;;;;;;;5.63;4.30;;;;;;;5.40;100.00;96564.47;5072545;28;20456;-76
2022/05/28 04:02:36;;;;;;;11.47;4.53;;;;;;;5.25;100.00;96528.00;5077243;28;20492;-76
2022/05/28 04:05:04;;;;;;;5.40;2.80;;;;;;;5.31;100.00;96532.09;5095714;28;20443;-76
2022/05/28 04:07:30;;;;;;;4.53;3.23;;;;;;;5.38;100.00;96543.00;5096280;28;20517;-76
2022/05/28 04:09:57;;;;;;;5.90;2.53;;;;;;;5.47;100.00;96554.38;5097125;28;20445;-77
2022/05/28 04:12:23;;;;;;;5.70;2.50;;;;;;;5.48;100.00;96536.81;5080053;28;20457;-76
2022/05/28 04:14:50;;;;;;;4.80;2.60;;;;;;;5.58;100.00;96541.88;5079018;28;20459;-76
2022/05/28 04:17:18;;;;;;;4.93;2.70;;;;;;;5.60;100.00;96553.63;5073408;28;20468;-76
2022/05/28 04:19:45;;;;;;;6.90;3.03;;;;;;;5.75;100.00;96570.19;5073408;28;20480;-76
2022/05/28 04:22:11;;;;;;;6.00;3.10;;;;;;;5.77;100.00;96539.19;5072225;28;20468;-76
2022/05/28 04:24:38;;;;;;;3.87;2.53;;;;;;;5.97;100.00;96553.81;5073033;28;20433;-76
2022/05/28 04:27:05;;;;;;;3.07;2.27;;;;;;;6.26;100.00;96585.03;5073085;28;20492;-75
2022/05/28 04:29:32;;;;;;;2.93;2.50;;;;;;;6.10;100.00;96538.06;5071917;28;20436;-76
2022/05/28 04:31:58;;;;;;;7.70;2.87;;;;;;;6.34;100.00;96563.34;5083866;28;20455;-76
2022/05/28 04:34:25;;;;;;;5.00;2.83;;;;;;;6.32;100.00;96555.78;5074477;28;20997;-76
2022/05/28 04:36:51;;;;;;;7.47;2.80;;;;;;;6.31;100.00;96548.97;5071816;28;20544;-76
2022/05/28 04:39:18;;;;;;;5.67;3.10;;;;;;;6.68;100.00;96590.00;5071732;28;21019;-76
2022/05/28 04:41:45;;;;;;;6.43;2.50;;;;;;;6.22;100.00;96506.09;5071595;28;20521;-76
2022/05/28 04:44:11;;;;;;;10.80;3.73;;;;;;;6.48;100.00;96540.47;5054840;28;20899;-76
2022/05/28 04:46:38;;;;;;;6.27;2.80;;;;;;;6.73;100.00;96573.34;5071865;28;20454;-76
2022/05/28 04:49:05;;;;;;;3.83;2.67;;;;;;;6.71;100.00;96551.84;5086268;28;20774;-76
2022/05/28 04:51:31;;;;;;;8.27;3.07;;;;;;;6.65;100.00;96524.88;5088447;28;20524;-76
2022/05/28 04:53:58;;;;;;;4.70;2.43;;;;;;;6.84;100.00;96568.66;5088120;28;20966;-76
2022/05/28 04:56:25;;;;;;;3.60;3.17;;;;;;;7.21;100.00;96599.09;5072659;28;20784;-76
2022/05/28 04:58:51;;;;;;;4.00;2.80;;;;;;;7.21;100.00;96557.03;5071285;28;20590;-76
2022/05/28 05:01:20;;;;;;;11.57;3.83;;;;;;;7.60;100.00;96601.09;5071215;28;20551;-76
2022/05/28 05:03:47;;;;;;;4.53;2.80;;;;;;;7.52;100.00;96601.81;5058058;28;20519;-76
2022/05/28 05:06:14;;;;;;;7.47;3.20;;;;;;;7.53;100.00;96577.84;5072601;28;20936;-76
2022/05/28 05:08:42;;;;;;;8.90;2.30;;;;;;;7.46;100.00;96588.00;5055032;28;20530;-76
2022/05/28 05:11:10;;;;;;;5.13;2.63;;;;;;;7.36;100.00;96581.16;5072326;28;20859;-76
2022/05/28 05:13:37;;;;;;;6.90;2.70;;;;;;;7.41;100.00;96591.53;5070966;28;20501;-76
2022/05/28 05:16:12;;;;;;;7.07;3.57;;;;;;;7.64;100.00;96616.00;5087795;28;20490;-76
2022/05/28 05:18:40;;;;;;;9.93;2.80;;;;;;;7.55;100.00;96593.34;5054579;28;20436;-76
2022/05/28 05:21:07;;;;;;;4.43;2.73;;;;;;;7.54;100.00;96595.19;5087750;28;20670;-76
2022/05/28 05:23:33;;;;;;;4.93;2.87;;;;;;;7.44;100.00;96579.63;5063935;28;20850;-76
2022/05/28 05:26:00;;;;;;;5.03;3.03;;;;;;;7.62;100.00;96599.75;5074501;28;20471;-76
2022/05/28 05:28:27;;;;;;;5.23;4.73;;;;;;;7.33;100.00;96563.31;5050859;28;20433;-77
2022/05/28 05:30:53;;;;;;;7.50;2.30;;;;;;;7.69;100.00;96597.44;5067576;28;20435;-76
2022/05/28 05:33:20;;;;;;;6.13;2.60;;;;;;;7.76;100.00;96581.25;5054133;28;20510;-76
2022/05/28 05:35:46;;;;;;;3.83;2.57;;;;;;;8.12;100.00;96610.06;5054043;28;20535;-76
2022/05/28 05:38:13;;;;;;;6.40;2.60;;;;;;;8.18;100.00;96614.13;5053260;28;20531;-76
2022/05/28 05:40:40;;;;;;;7.03;2.20;;;;;;;7.85;100.00;96571.53;5070464;28;20478;-76
2022/05/28 05:43:07;;;;;;;2.60;2.40;;;;;;;8.14;100.00;96605.25;5070245;28;20464;-76
2022/05/28 05:45:34;;;;;;;5.30;2.73;;;;;;;7.96;100.00;96579.94;5070332;28;20472;-76
2022/05/28 05:48:01;;;;;;;3.90;2.30;;;;;;;8.26;100.00;96612.59;5072258;28;20434;-76
2022/05/28 05:50:28;;;;;;;3.63;2.80;;;;;;;8.13;100.00;96580.00;5070273;28;20523;-76
2022/05/28 05:52:55;;;;;;;6.70;2.43;;;;;;;8.41;100.00;96600.91;5071767;28;20593;-76
2022/05/28 05:55:21;;;;;;;11.10;3.40;;;;;;;8.63;100.00;96608.75;5076630;28;20478;-76
2022/05/28 05:57:48;;;;;;;3.60;2.23;;;;;;;8.49;100.00;96582.50;5082696;28;20448;-76
2022/05/28 06:00:15;;;;;;;5.80;2.00;;;;;;;8.57;100.00;96578.34;5099712;28;20465;-76
2022/05/28 06:02:42;;;;;;;4.50;2.43;;;;;;;8.88;100.00;96609.88;5091562;28;20551;-76
2022/05/28 06:05:09;;;;;;;6.00;2.10;;;;;;;8.93;100.00;96614.22;5096434;28;20435;-76
2022/05/28 06:07:36;;;;;;;9.53;2.37;;;;;;;8.98;100.00;96567.41;5080210;28;20447;-76
2022/05/28 06:10:03;;;;;;;14.10;2.10;;;;;;;9.38;100.00;96615.53;5077822;28;20499;-77
2022/05/28 06:12:29;;;;;;;6.20;2.80;;;;;;;9.45;100.00;96621.09;5081463;28;20582;-76
2022/05/28 06:14:56;;;;;;;5.27;1.87;;;;;;;9.78;100.00;96616.09;5078236;28;20435;-76
2022/05/28 06:17:23;;;;;;;4.30;2.97;;;;;;;9.63;100.00;96613.97;5079431;28;20428;-76
2022/05/28 06:19:51;;;;;;;5.73;2.00;;;;;;;9.47;100.00;96603.06;5083699;28;20440;-76
2022/05/28 06:22:18;;;;;;;8.43;2.20;;;;;;;9.66;100.00;96591.44;5082692;28;20507;-76
2022/05/28 06:24:45;;;;;;;4.90;1.60;;;;;;;10.08;100.00;96608.25;5076438;28;20887;-76
2022/05/28 06:27:13;;;;;;;1.77;1.17;;;;;;;10.36;100.00;96616.59;5077223;28;20494;-76
2022/05/28 06:29:40;;;;;;;8.10;1.93;;;;;;;10.44;100.00;96612.38;5069845;28;20840;-76
2022/05/28 06:32:07;;;;;;;2.23;1.50;;;;;;;9.52;100.00;96480.75;5082833;28;20514;-76
2022/05/28 06:34:34;;;;;;;5.70;1.90;;;;;;;9.83;100.00;96580.81;5053689;28;20443;-76
2022/05/28 06:37:01;;;;;;;1.77;1.30;;;;;;;10.28;100.00;96578.56;5081480;28;20428;-76
2022/05/28 06:39:28;;;;;;;3.60;1.97;;;;;;;9.97;100.00;96559.50;5039977;28;20437;-76
2022/05/28 06:41:55;;;;;;;4.77;1.80;;;;;;;9.99;100.00;96608.28;5069768;28;20479;-76
2022/05/28 06:44:22;;;;;;;5.83;2.10;;;;;;;9.51;100.00;96525.94;5073466;28;20496;-76
2022/05/28 06:46:49;;;;;;;4.03;1.63;;;;;;;10.45;100.00;96600.72;5059962;28;20978;-76
2022/05/28 06:49:15;;;;;;;3.10;1.97;;;;;;;10.32;100.00;96553.03;5086170;28;20420;-76
2022/05/28 06:51:42;;;;;;;4.73;2.20;;;;;;;10.61;100.00;96614.94;5087487;28;20463;-76
2022/05/28 06:54:09;;;;;;;2.37;2.00;;;;;;;10.14;100.00;96550.72;5081846;28;20442;-76
2022/05/28 06:56:36;;;;;;;3.73;1.33;;;;;;;10.05;100.00;96533.06;5080519;28;20452;-76
2022/05/28 06:59:03;;;;;;;3.10;1.67;;;;;;;10.44;100.00;96604.44;5085873;28;20520;-75
2022/05/28 07:01:35;;;;;;;5.20;1.87;;;;;;;10.08;100.00;96585.25;5075958;28;20470;-75
2022/05/28 07:04:02;;;;;;;3.90;2.07;;;;;;;10.61;100.00;96614.94;5064703;28;20425;-75
2022/05/28 07:06:29;;;;;;;5.17;1.47;;;;;;;10.46;100.00;96589.81;5084330;28;20506;-75
2022/05/28 07:08:55;;;;;;;4.90;2.10;;;;;;;11.02;100.00;96600.22;5073425;28;20464;-76
2022/05/28 07:11:22;;;;;;;3.20;1.77;;;;;;;10.78;100.00;96593.66;5086619;28;20583;-75
2022/05/28 07:13:49;;;;;;;3.20;1.80;;;;;;;10.52;100.00;96559.44;5083158;28;20475;-75
2022/05/28 07:16:15;;;;;;;4.93;1.80;;;;;;;10.78;100.00;96608.78;5090812;28;20531;-75
2022/05/28 07:18:43;;;;;;;3.60;1.70;;;;;;;10.90;100.00;96580.53;5073348;28;20424;-75
2022/05/28 07:21:11;;;;;;;8.00;1.90;;;;;;;10.49;100.00;96559.31;5058701;28;20799;-75
2022/05/28 07:23:38;;;;;;;6.23;1.60;;;;;;;10.33;100.00;96577.59;5083460;28;20548;-75
2022/05/28 07:26:06;;;;;;;8.63;4.17;;;;;;;10.21;100.00;96606.53;5088248;28;20436;-75
2022/05/28 07:28:34;;;;;;;6.10;1.77;;;;;;;10.18;100.00;96615.09;5083709;28;20420;-75
2022/05/28 07:31:06;;;;;;;3.23;1.50;;;;;;;9.86;100.00;96606.59;5081079;28;20431;-75
2022/05/28 07:33:36;;;;;;;8.90;1.90;;;;;;;10.19;100.00;96606.84;5082294;28;20430;-75
2022/05/28 07:36:04;;;;;;;9.07;1.83;;;;;;;10.16;100.00;96583.69;5072952;28;20438;-75
2022/05/28 07:38:32;;;;;;;4.33;1.80;;;;;;;10.08;100.00;96597.69;5085291;28;20538;-75
2022/05/28 07:41:20;;;;;;;5.50;1.87;;;;;;;10.32;100.00;96605.88;5080905;28;20448;-75
2022/05/28 07:43:48;;;;;;;3.43;1.47;;;;;;;10.01;100.00;96579.69;5077523;28;20518;-75
2022/05/28 07:46:18;;;;;;;2.20;1.50;;;;;;;10.23;100.00;96583.22;5082235;28;20463;-75
2022/05/28 07:48:46;;;;;;;5.57;1.80;;;;;;;10.41;100.00;96594.47;5079367;28;20887;-75
2022/05/28 07:51:13;;;;;;;3.30;1.60;;;;;;;10.45;100.00;96603.34;5083065;28;20489;-75
2022/05/28 07:53:40;;;;;;;5.80;1.77;;;;;;;10.25;100.00;96600.31;5069602;28;20455;-75
2022/05/28 07:56:08;;;;;;;3.90;2.00;;;;;;;9.94;100.00;96600.53;5071479;28;20510;-75
2022/05/28 07:58:35;;;;;;;5.43;2.07;;;;;;;9.93;100.00;96577.84;5078957;28;20450;-75
2022/05/28 08:01:04;;;;;;;6.87;1.90;;;;;;;9.97;100.00;96597.25;5090249;28;20450;-75
2022/05/28 08:03:31;;;;;;;1.93;1.30;;;;;;;9.77;100.00;96608.50;5062263;28;20452;-76
2022/05/28 08:05:58;;;;;;;2.00;1.47;;;;;;;9.47;100.00;96581.19;5066408;28;20966;-75
2022/05/28 08:08:27;;;;;;;5.80;2.20;;;;;;;9.87;100.00;96559.84;5073492;28;20440;-75
2022/05/28 08:10:54;;;;;;;6.03;3.00;;;;;;;9.90;100.00;96589.06;5083821;28;20985;-75
2022/05/28 08:13:23;;;;;;;5.30;2.73;;;;;;;9.86;100.00;96593.41;5061188;28;20463;-75
2022/05/28 08:15:52;;;;;;;3.00;1.50;;;;;;;10.14;100.00;96619.44;5060983;28;20438;-75
2022/05/28 08:18:23;;;;;;;3.20;1.87;;;;;;;9.89;100.00;96619.19;5086369;28;20765;-75
2022/05/28 08:23:38;;;;;;;4.83;1.67;;;;;;;9.95;100.00;96620.56;5081968;28;20540;-75
2022/05/28 08:26:05;;;;;;;1.83;1.57;;;;;;;9.68;100.00;96621.69;5078888;28;20465;-75
2022/05/28 08:28:32;;;;;;;3.40;1.23;;;;;;;9.61;100.00;96602.13;5066483;28;20482;-75
2022/05/28 08:30:58;;;;;;;2.37;1.37;;;;;;;9.98;100.00;96621.81;5086100;28;20512;-75
2022/05/28 08:33:25;;;;;;;4.17;1.70;;;;;;;9.80;100.00;96593.88;5083836;28;20443;-75
2022/05/28 08:35:52;;;;;;;5.23;1.97;;;;;;;9.99;100.00;96595.06;5058844;28;20527;-75
2022/05/28 08:38:21;;;;;;;5.30;2.03;;;;;;;9.84;100.00;96577.09;5074218;28;20476;-75
2022/05/28 08:41:00;;;;;;;5.40;1.73;;;;;;;9.72;100.00;96625.25;5085866;28;20527;-75
2022/05/28 08:43:33;;;;;;;4.03;1.40;;;;;;;9.69;100.00;96598.72;5072339;28;20464;-75
2022/05/28 08:46:00;;;;;;;3.90;1.60;;;;;;;10.06;100.00;96594.59;5072092;28;20440;-75
2022/05/28 08:48:38;;;;;;;2.93;1.30;;;;;;;10.32;100.00;96627.03;5085674;28;20434;-75
2022/05/28 08:51:14;;;;;;;1.93;1.73;;;;;;;9.93;100.00;96604.28;5081792;28;20475;-75
2022/05/28 08:54:08;;;;;;;4.17;2.07;;;;;;;10.01;100.00;96611.38;5075671;28;20867;-75
2022/05/28 08:56:37;;;;;;;6.37;1.70;;;;;;;10.20;100.00;96599.69;5077824;28;20507;-75
2022/05/28 08:59:15;;;;;;;3.43;1.70;;;;;;;10.53;100.00;96642.94;5085357;28;20440;-75
2022/05/28 09:01:44;;;;;;;4.60;1.50;;;;;;;10.83;100.00;96641.13;5084807;28;20456;-75
2022/05/28 09:04:17;;;;;;;5.30;2.03;;;;;;;11.17;100.00;96632.19;5082723;28;21267;-75
2022/05/28 09:06:49;;;;;;;3.93;2.07;;;;;;;11.60;100.00;96635.59;5073992;28;20419;-75
2022/05/28 09:09:16;;;;;;;3.73;1.50;;;;;;;11.17;100.00;96575.81;5072594;28;20428;-75
2022/05/28 09:11:49;;;;;;;3.30;1.80;;;;;;;11.74;100.00;96639.50;5085242;28;20474;-77
2022/05/28 09:14:32;;;;;;;2.50;1.50;;;;;;;11.41;100.00;96628.91;5071771;28;20482;-77
2022/05/28 09:17:18;;;;;;;2.33;1.97;;;;;;;11.36;100.00;96629.09;5069643;28;20455;-77
2022/05/28 09:19:45;;;;;;;4.67;1.43;;;;;;;10.89;100.00;96594.84;5079553;28;20428;-77
2022/05/28 09:22:13;;;;;;;3.97;2.00;;;;;;;11.20;100.00;96591.84;5063583;28;20476;-77
2022/05/28 09:24:41;;;;;;;3.03;1.20;;;;;;;11.35;100.00;96626.75;5068239;28;20472;-77
2022/05/28 09:27:32;;;;;;;2.73;1.33;;;;;;;11.50;100.00;96620.91;5072471;28;20508;-77
2022/05/28 09:30:18;;;;;;;2.67;1.80;;;;;;;11.15;100.00;96623.03;5076643;28;20928;-77
2022/05/28 09:32:50;;;;;;;1.60;1.50;;;;;;;11.27;100.00;96622.31;5085917;28;20455;-77
2022/05/28 09:35:39;;;;;;;5.10;2.00;;;;;;;11.22;100.00;96626.72;5084596;28;20486;-77
2022/05/28 09:38:32;;;;;;;4.10;1.90;;;;;;;10.31;100.00;96600.91;5070386;28;20911;-77
2022/05/28 09:41:14;;;;;;;2.60;1.50;;;;;;;10.25;100.00;96645.22;5055239;28;20952;-79
2022/05/28 09:43:56;;;;;;;4.20;1.83;;;;;;;9.15;100.00;96646.53;5052390;28;20473;-78
2022/05/28 09:46:30;;;;;;;4.47;1.80;;;;;;;7.96;100.00;96614.16;5073325;28;20527;-79
2022/05/28 09:49:24;;;;;;;1.83;1.70;;;;;;;8.68;100.00;96636.81;5052737;28;20824;-79
2022/05/28 09:51:58;;;;;;;1.97;1.30;;;;;;;8.08;100.00;96569.63;5072259;28;20500;-79
2022/05/28 09:54:30;;;;;;;3.57;1.53;;;;;;;8.53;100.00;96614.28;5093296;28;20753;-79
2022/05/28 09:56:58;;;;;;;1.67;1.43;;;;;;;9.10;100.00;96606.34;5092901;28;20441;-79
2022/05/28 09:59:35;;;;;;;1.40;1.23;;;;;;;9.83;100.00;96615.16;5108804;28;20451;-79
2022/05/28 10:02:09;;;;;;;2.13;1.93;;;;;;;9.66;100.00;96575.59;5098281;28;20455;-79
2022/05/28 10:04:44;;;;;;;1.93;1.20;;;;;;;9.89;100.00;96616.56;5100104;28;20428;-80
2022/05/28 10:07:11;;;;;;;1.33;1.00;;;;;;;10.15;100.00;96615.69;5097972;28;20420;-80
2022/05/28 10:09:48;;;;;;;1.33;0.90;;;;;;;10.31;100.00;96585.84;5109678;28;20883;-79
2022/05/28 10:12:28;;;;;;;2.60;1.47;;;;;;;11.10;100.00;96613.41;5068522;28;21006;-79
2022/05/28 10:15:30;;;;;;;1.67;0.97;;;;;;;11.49;100.00;96616.69;5054667;28;20543;-79
2022/05/28 10:18:01;;;;;;;3.97;1.50;;;;;;;11.87;100.00;96597.19;5074857;28;20933;-79
2022/05/28 10:20:28;;;;;;;2.90;1.33;;;;;;;12.04;100.00;96565.22;5076557;28;20451;-79
2022/05/28 10:23:01;;;;;;;2.87;1.50;;;;;;;11.47;100.00;96553.44;5061220;28;20950;-80
2022/05/28 10:25:49;;;;;;;3.83;1.60;;;;;;;11.78;100.00;96570.78;5080746;28;20462;-79
2022/05/28 10:28:40;;;;;;;7.33;1.60;;;;;;;11.88;100.00;96583.63;5041306;28;20460;-79
2022/05/28 10:31:17;;;;;;;1.93;1.63;;;;;;;11.45;100.00;96592.72;5074684;28;20444;-79
2022/05/28 10:33:44;;;;;;;3.07;2.00;;;;;;;11.61;100.00;96586.81;5080738;28;20417;-79
2022/05/28 10:36:15;;;;;;;2.93;1.60;;;;;;;11.71;100.00;96555.41;5054440;28;20472;-79
2022/05/28 10:38:43;;;;;;;3.10;1.80;;;;;;;12.18;100.00;96555.09;5054792;28;20428;-79
2022/05/28 10:41:18;;;;;;;3.67;1.30;;;;;;;12.46;100.00;96584.38;5054551;28;20450;-78
2022/05/28 10:43:44;;;;;;;3.37;1.53;;;;;;;11.96;100.00;96566.09;5070731;28;20506;-79
2022/05/28 10:46:14;;;;;;;3.63;1.57;;;;;;;12.05;100.00;96614.47;5071268;28;20436;-79
2022/05/28 10:49:12;;;;;;;2.20;2.00;;;;;;;12.11;100.00;96605.97;5074159;28;20790;-79
2022/05/28 10:51:58;;;;;;;2.10;1.00;;;;;;;12.23;100.00;96599.16;5078955;28;20467;-79
2022/05/28 10:54:36;;;;;;;3.20;1.37;;;;;;;12.05;98.43;96595.94;5064269;28;20429;-79
2022/05/28 10:57:08;;;;;;;1.37;1.00;;;;;;;12.61;96.38;96599.63;5084529;28;20466;-79
2022/05/28 10:59:35;;;;;;;2.77;1.30;;;;;;;12.48;94.52;96592.78;5083585;28;20439;-79
2022/05/28 11:02:36;;;;;;;3.00;1.60;;;;;;;12.75;96.19;96588.66;5068623;28;20542;-78
2022/05/28 11:05:08;;;;;;;1.57;1.43;;;;;;;13.10;90.22;96586.31;5057693;28;20451;-78
2022/05/28 11:07:40;;;;;;;1.93;1.43;;;;;;;12.78;89.17;96597.84;5070970;28;20495;-78
2022/05/28 11:10:33;;;;;;;3.43;1.63;;;;;;;12.83;84.93;96587.00;5079105;28;20447;-78
2022/05/28 11:13:11;;;;;;;1.57;1.17;;;;;;;13.00;84.13;96587.53;5077421;28;20471;-79
2022/05/28 11:16:08;;;;;;;2.27;1.60;;;;;;;13.04;85.81;96537.19;5076607;28;20443;-79
2022/05/28 11:19:13;;;;;;;2.80;1.60;;;;;;;13.39;81.51;96576.50;5073100;28;20433;-78
2022/05/28 11:22:20;;;;;;;4.70;1.20;;;;;;;13.51;81.58;96568.50;5062931;28;20491;-78
2022/05/28 11:25:09;;;;;;;2.33;1.73;;;;;;;13.36;81.11;96554.06;5085408;28;21260;-78
2022/05/28 11:27:49;;;;;;;1.87;1.03;;;;;;;13.86;70.34;96574.72;5057990;28;20440;-79
2022/05/28 11:30:23;;;;;;;3.70;1.67;;;;;;;14.46;68.60;96577.38;5071768;28;21336;-79
2022/05/28 11:33:02;;;;;;;2.53;1.37;;;;;;;14.77;69.88;96572.00;5079935;28;20459;-79
2022/05/28 11:35:59;;;;;;;2.73;1.13;;;;;;;14.05;60.91;96560.00;5087095;28;20538;-78
2022/05/28 11:38:35;;;;;;;1.83;1.10;;;;;;;14.31;55.28;96567.47;5081372;28;20446;-79
2022/05/28 11:41:12;;;;;;;1.40;1.03;;;;;;;14.43;56.30;96503.53;5071689;28;20527;-79
2022/05/28 11:43:52;;;;;;;2.50;1.40;;;;;;;14.68;55.84;96526.16;5082696;28;20517;-78
2022/05/28 11:46:24;;;;;;;1.77;1.20;;;;;;;15.33;57.32;96562.88;5070685;28;20445;-78
2022/05/28 11:52:05;;;;;;;1.67;1.27;;;;;;;14.96;53.71;96557.19;5079030;28;21003;-78
2022/05/28 11:54:38;;;;;;;2.30;1.10;;;;;;;15.44;56.79;96566.53;5080068;28;20456;-78
2022/05/28 11:57:14;;;;;;;1.53;1.27;;;;;;;14.37;54.56;96511.00;5068643;28;20475;-79